sensor_id;sensor_type;location;lat;lon;timestamp;P1;durP1;ratioP1;P2;durP2;ratioP2
20478;SDS011;10398;52.490;13.434;2023-02-01T00:01:38;14.87;;;2.47;;
20478;SDS011;10398;52.490;13.434;2023-02-01T00:04:04;16.53;;;2.03;;
20478;SDS011;10398;52.490;13.434;2023-02-01T00:06:36;16.70;;;2.37;;
20478;SDS011;10398;52.490;13.434;2023-02-01T00:09:02;9.00;;;1.80;;
20478;SDS011;10398;52.490;13.434;2023-02-01T00:11:27;9.83;;;1.67;;
20478;SDS011;10398;52.490;13.434;2023-02-01T00:13:53;12.43;;;2.10;;
20478;SDS011;10398;52.490;13.434;2023-02-01T00:16:22;18.70;;;2.60;;
20478;SDS011;10398;52.490;13.434;2023-02-01T00:18:56;21.33;;;3.20;;
20478;SDS011;10398;52.490;13.434;2023-02-01T00:21:32;19.70;;;2.33;;
20478;SDS011;10398;52.490;13.434;2023-02-01T00:23:59;14.63;;;2.30;;
20478;SDS011;10398;52.490;13.434;2023-02-01T00:26:27;15.10;;;1.60;;
20478;SDS011;10398;52.490;13.434;2023-02-01T00:29:03;9.47;;;2.73;;
20478;SDS011;10398;52.490;13.434;2023-02-01T00:31:38;5.90;;;1.63;;
20478;SDS011;10398;52.490;13.434;2023-02-01T00:34:14;13.80;;;2.03;;
20478;SDS011;10398;52.490;13.434;2023-02-01T00:36:41;15.33;;;1.80;;
20478;SDS011;10398;52.490;13.434;2023-02-01T00:39:10;19.03;;;2.00;;
20478;SDS011;10398;52.490;13.434;2023-02-01T00:41:39;11.53;;;1.90;;
20478;SDS011;10398;52.490;13.434;2023-02-01T00:44:05;11.73;;;1.80;;
20478;SDS011;10398;52.490;13.434;2023-02-01T00:46:33;21.97;;;2.87;;
20478;SDS011;10398;52.490;13.434;2023-02-01T00:49:02;18.73;;;1.80;;
20478;SDS011;10398;52.490;13.434;2023-02-01T00:51:30;16.70;;;1.70;;
20478;SDS011;10398;52.490;13.434;2023-02-01T00:53:56;13.00;;;2.37;;
20478;SDS011;10398;52.490;13.434;2023-02-01T00:56:22;9.07;;;1.63;;
20478;SDS011;10398;52.490;13.434;2023-02-01T00:58:48;10.40;;;2.27;;
20478;SDS011;10398;52.490;13.434;2023-02-01T01:01:15;9.70;;;1.60;;
20478;SDS011;10398;52.490;13.434;2023-02-01T01:03:50;13.60;;;1.30;;
20478;SDS011;10398;52.490;13.434;2023-02-01T01:06:33;8.83;;;1.37;;
20478;SDS011;10398;52.490;13.434;2023-02-01T01:09:02;10.93;;;1.67;;
20478;SDS011;10398;52.490;13.434;2023-02-01T01:11:30;10.77;;;1.40;;
20478;SDS011;10398;52.490;13.434;2023-02-01T01:14:03;9.57;;;2.17;;
20478;SDS011;10398;52.490;13.434;2023-02-01T01:16:30;14.03;;;1.83;;
20478;SDS011;10398;52.490;13.434;2023-02-01T01:18:57;15.43;;;1.47;;
20478;SDS011;10398;52.490;13.434;2023-02-01T01:21:23;13.87;;;1.47;;
20478;SDS011;10398;52.490;13.434;2023-02-01T01:23:50;15.27;;;1.57;;
20478;SDS011;10398;52.490;13.434;2023-02-01T01:26:20;10.10;;;1.70;;
20478;SDS011;10398;52.490;13.434;2023-02-01T01:28:48;15.93;;;2.13;;
20478;SDS011;10398;52.490;13.434;2023-02-01T01:31:15;6.67;;;1.07;;
20478;SDS011;10398;52.490;13.434;2023-02-01T01:33:41;13.17;;;1.30;;
20478;SDS011;10398;52.490;13.434;2023-02-01T01:36:09;17.03;;;1.53;;
20478;SDS011;10398;52.490;13.434;2023-02-01T01:38:36;13.10;;;1.30;;
20478;SDS011;10398;52.490;13.434;2023-02-01T01:41:02;11.30;;;1.60;;
20478;SDS011;10398;52.490;13.434;2023-02-01T01:43:44;9.30;;;1.13;;
20478;SDS011;10398;52.490;13.434;2023-02-01T01:46:25;4.83;;;0.93;;
20478;SDS011;10398;52.490;13.434;2023-02-01T01:48:57;12.97;;;2.57;;
20478;SDS011;10398;52.490;13.434;2023-02-01T01:51:24;11.20;;;2.10;;
20478;SDS011;10398;52.490;13.434;2023-02-01T01:54:01;19.27;;;2.77;;
20478;SDS011;10398;52.490;13.434;2023-02-01T01:56:42;14.90;;;1.90;;
20478;SDS011;10398;52.490;13.434;2023-02-01T01:59:10;8.63;;;1.97;;
20478;SDS011;10398;52.490;13.434;2023-02-01T02:01:37;8.50;;;1.70;;
20478;SDS011;10398;52.490;13.434;2023-02-01T02:04:03;18.77;;;2.70;;
20478;SDS011;10398;52.490;13.434;2023-02-01T02:06:34;9.27;;;1.83;;
20478;SDS011;10398;52.490;13.434;2023-02-01T02:09:10;9.07;;;1.33;;
20478;SDS011;10398;52.490;13.434;2023-02-01T02:11:36;10.20;;;1.27;;
20478;SDS011;10398;52.490;13.434;2023-02-01T02:14:02;17.80;;;1.83;;
20478;SDS011;10398;52.490;13.434;2023-02-01T02:30:36;11.47;;;1.50;;
20478;SDS011;10398;52.490;13.434;2023-02-01T02:41:52;13.13;;;1.30;;
20478;SDS011;10398;52.490;13.434;2023-02-01T02:45:15;16.10;;;1.70;;
20478;SDS011;10398;52.490;13.434;2023-02-01T02:56:45;10.97;;;1.23;;
20478;SDS011;10398;52.490;13.434;2023-02-01T02:59:32;9.47;;;0.90;;
20478;SDS011;10398;52.490;13.434;2023-02-01T03:02:18;10.87;;;1.70;;
20478;SDS011;10398;52.490;13.434;2023-02-01T03:05:03;24.03;;;1.73;;
20478;SDS011;10398;52.490;13.434;2023-02-01T03:13:08;9.77;;;1.27;;
20478;SDS011;10398;52.490;13.434;2023-02-01T03:18:27;12.40;;;1.90;;
20478;SDS011;10398;52.490;13.434;2023-02-01T03:21:06;10.20;;;1.30;;
20478;SDS011;10398;52.490;13.434;2023-02-01T03:23:36;14.83;;;1.90;;
20478;SDS011;10398;52.490;13.434;2023-02-01T03:26:03;9.57;;;2.07;;
20478;SDS011;10398;52.490;13.434;2023-02-01T03:28:35;6.87;;;1.70;;
20478;SDS011;10398;52.490;13.434;2023-02-01T03:31:03;16.43;;;1.80;;
20478;SDS011;10398;52.490;13.434;2023-02-01T03:33:29;10.23;;;1.87;;
20478;SDS011;10398;52.490;13.434;2023-02-01T03:38:47;16.10;;;2.30;;
20478;SDS011;10398;52.490;13.434;2023-02-01T03:46:40;12.73;;;2.17;;
20478;SDS011;10398;52.490;13.434;2023-02-01T03:49:22;14.83;;;2.03;;
20478;SDS011;10398;52.490;13.434;2023-02-01T03:52:09;7.70;;;1.40;;
20478;SDS011;10398;52.490;13.434;2023-02-01T03:54:38;13.90;;;2.10;;
20478;SDS011;10398;52.490;13.434;2023-02-01T03:57:06;20.73;;;2.00;;
20478;SDS011;10398;52.490;13.434;2023-02-01T03:59:42;9.30;;;1.30;;
20478;SDS011;10398;52.490;13.434;2023-02-01T04:02:10;10.27;;;1.70;;
20478;SDS011;10398;52.490;13.434;2023-02-01T04:04:37;7.93;;;2.13;;
20478;SDS011;10398;52.490;13.434;2023-02-01T04:07:03;12.40;;;2.07;;
20478;SDS011;10398;52.490;13.434;2023-02-01T04:09:28;7.23;;;1.37;;
20478;SDS011;10398;52.490;13.434;2023-02-01T04:11:54;7.83;;;1.30;;
20478;SDS011;10398;52.490;13.434;2023-02-01T04:14:20;18.33;;;1.97;;
20478;SDS011;10398;52.490;13.434;2023-02-01T04:16:46;9.83;;;1.90;;
20478;SDS011;10398;52.490;13.434;2023-02-01T04:19:11;12.73;;;1.77;;
20478;SDS011;10398;52.490;13.434;2023-02-01T04:21:37;18.07;;;2.10;;
20478;SDS011;10398;52.490;13.434;2023-02-01T04:24:03;12.57;;;1.47;;
20478;SDS011;10398;52.490;13.434;2023-02-01T04:26:29;11.30;;;1.80;;
20478;SDS011;10398;52.490;13.434;2023-02-01T04:28:55;16.93;;;1.53;;
20478;SDS011;10398;52.490;13.434;2023-02-01T04:31:21;12.10;;;2.00;;
20478;SDS011;10398;52.490;13.434;2023-02-01T04:33:50;13.17;;;2.13;;
20478;SDS011;10398;52.490;13.434;2023-02-01T04:36:17;11.67;;;1.70;;
20478;SDS011;10398;52.490;13.434;2023-02-01T04:38:45;10.10;;;1.80;;
20478;SDS011;10398;52.490;13.434;2023-02-01T04:41:12;16.10;;;2.27;;
20478;SDS011;10398;52.490;13.434;2023-02-01T04:43:37;14.03;;;2.20;;
20478;SDS011;10398;52.490;13.434;2023-02-01T04:46:03;15.30;;;1.73;;
20478;SDS011;10398;52.490;13.434;2023-02-01T04:48:29;15.87;;;2.47;;
20478;SDS011;10398;52.490;13.434;2023-02-01T04:50:55;21.93;;;2.10;;
20478;SDS011;10398;52.490;13.434;2023-02-01T04:53:21;13.20;;;1.67;;
20478;SDS011;10398;52.490;13.434;2023-02-01T04:55:47;14.50;;;2.63;;
20478;SDS011;10398;52.490;13.434;2023-02-01T04:58:15;9.93;;;2.07;;
20478;SDS011;10398;52.490;13.434;2023-02-01T05:00:40;14.53;;;2.40;;
20478;SDS011;10398;52.490;13.434;2023-02-01T05:03:06;12.10;;;1.63;;
20478;SDS011;10398;52.490;13.434;2023-02-01T05:05:32;19.87;;;2.17;;
20478;SDS011;10398;52.490;13.434;2023-02-01T05:07:57;18.17;;;1.50;;
20478;SDS011;10398;52.490;13.434;2023-02-01T05:10:23;14.47;;;2.80;;
20478;SDS011;10398;52.490;13.434;2023-02-01T05:12:49;11.63;;;2.03;;
20478;SDS011;10398;52.490;13.434;2023-02-01T05:15:33;5.77;;;1.60;;
20478;SDS011;10398;52.490;13.434;2023-02-01T05:17:59;14.97;;;1.77;;
20478;SDS011;10398;52.490;13.434;2023-02-01T05:20:24;15.43;;;2.20;;
20478;SDS011;10398;52.490;13.434;2023-02-01T05:22:50;11.57;;;2.20;;
20478;SDS011;10398;52.490;13.434;2023-02-01T05:25:16;17.47;;;1.97;;
20478;SDS011;10398;52.490;13.434;2023-02-01T05:27:42;20.57;;;2.40;;
20478;SDS011;10398;52.490;13.434;2023-02-01T05:30:08;20.37;;;2.60;;
20478;SDS011;10398;52.490;13.434;2023-02-01T05:32:34;17.50;;;2.17;;
20478;SDS011;10398;52.490;13.434;2023-02-01T05:35:00;16.23;;;1.50;;
20478;SDS011;10398;52.490;13.434;2023-02-01T05:37:26;10.13;;;1.70;;
20478;SDS011;10398;52.490;13.434;2023-02-01T05:39:52;13.87;;;2.53;;
20478;SDS011;10398;52.490;13.434;2023-02-01T05:42:17;19.63;;;2.43;;
20478;SDS011;10398;52.490;13.434;2023-02-01T05:44:44;15.90;;;2.77;;
20478;SDS011;10398;52.490;13.434;2023-02-01T05:47:09;9.10;;;1.80;;
20478;SDS011;10398;52.490;13.434;2023-02-01T05:49:35;15.77;;;1.93;;
20478;SDS011;10398;52.490;13.434;2023-02-01T05:52:01;12.03;;;1.67;;
20478;SDS011;10398;52.490;13.434;2023-02-01T05:54:27;15.13;;;2.17;;
20478;SDS011;10398;52.490;13.434;2023-02-01T05:56:53;14.00;;;2.20;;
20478;SDS011;10398;52.490;13.434;2023-02-01T05:59:18;13.73;;;2.47;;
20478;SDS011;10398;52.490;13.434;2023-02-01T06:01:44;10.83;;;1.83;;
20478;SDS011;10398;52.490;13.434;2023-02-01T06:04:10;10.73;;;1.63;;
20478;SDS011;10398;52.490;13.434;2023-02-01T06:06:35;20.50;;;2.30;;
20478;SDS011;10398;52.490;13.434;2023-02-01T06:09:02;18.60;;;1.93;;
20478;SDS011;10398;52.490;13.434;2023-02-01T06:11:28;27.23;;;3.40;;
20478;SDS011;10398;52.490;13.434;2023-02-01T06:13:54;13.53;;;1.73;;
20478;SDS011;10398;52.490;13.434;2023-02-01T06:16:20;15.97;;;2.47;;
20478;SDS011;10398;52.490;13.434;2023-02-01T06:18:46;17.37;;;3.70;;
20478;SDS011;10398;52.490;13.434;2023-02-01T06:21:12;13.53;;;1.93;;
20478;SDS011;10398;52.490;13.434;2023-02-01T06:23:48;21.10;;;2.20;;
20478;SDS011;10398;52.490;13.434;2023-02-01T06:26:15;21.17;;;1.90;;
20478;SDS011;10398;52.490;13.434;2023-02-01T06:28:43;22.03;;;2.63;;
20478;SDS011;10398;52.490;13.434;2023-02-01T06:31:08;8.30;;;1.90;;
20478;SDS011;10398;52.490;13.434;2023-02-01T06:33:34;11.40;;;2.20;;
20478;SDS011;10398;52.490;13.434;2023-02-01T06:36:01;11.27;;;1.87;;
20478;SDS011;10398;52.490;13.434;2023-02-01T06:38:29;14.77;;;2.37;;
20478;SDS011;10398;52.490;13.434;2023-02-01T06:40:56;10.20;;;1.77;;
20478;SDS011;10398;52.490;13.434;2023-02-01T06:43:23;23.80;;;2.53;;
20478;SDS011;10398;52.490;13.434;2023-02-01T06:45:50;11.50;;;2.07;;
20478;SDS011;10398;52.490;13.434;2023-02-01T06:48:16;15.33;;;2.07;;
20478;SDS011;10398;52.490;13.434;2023-02-01T06:50:42;11.23;;;1.93;;
20478;SDS011;10398;52.490;13.434;2023-02-01T06:53:07;17.80;;;2.63;;
20478;SDS011;10398;52.490;13.434;2023-02-01T06:55:33;10.77;;;1.93;;
20478;SDS011;10398;52.490;13.434;2023-02-01T06:57:59;16.43;;;2.50;;
20478;SDS011;10398;52.490;13.434;2023-02-01T07:00:26;10.93;;;1.40;;
20478;SDS011;10398;52.490;13.434;2023-02-01T07:02:51;15.73;;;2.50;;
20478;SDS011;10398;52.490;13.434;2023-02-01T07:05:17;8.70;;;1.70;;
20478;SDS011;10398;52.490;13.434;2023-02-01T07:07:43;21.17;;;2.23;;
20478;SDS011;10398;52.490;13.434;2023-02-01T07:10:09;15.57;;;1.83;;
20478;SDS011;10398;52.490;13.434;2023-02-01T07:12:35;11.13;;;1.93;;
20478;SDS011;10398;52.490;13.434;2023-02-01T07:15:01;8.50;;;1.57;;
20478;SDS011;10398;52.490;13.434;2023-02-01T07:17:28;18.20;;;2.30;;
20478;SDS011;10398;52.490;13.434;2023-02-01T07:19:54;13.93;;;2.50;;
20478;SDS011;10398;52.490;13.434;2023-02-01T07:22:20;13.03;;;1.93;;
20478;SDS011;10398;52.490;13.434;2023-02-01T07:24:46;13.97;;;2.27;;
20478;SDS011;10398;52.490;13.434;2023-02-01T07:27:11;16.07;;;2.00;;
20478;SDS011;10398;52.490;13.434;2023-02-01T07:29:37;12.37;;;1.50;;
20478;SDS011;10398;52.490;13.434;2023-02-01T07:32:03;14.47;;;1.77;;
20478;SDS011;10398;52.490;13.434;2023-02-01T07:34:29;19.90;;;1.97;;
20478;SDS011;10398;52.490;13.434;2023-02-01T07:36:55;9.63;;;1.83;;
20478;SDS011;10398;52.490;13.434;2023-02-01T07:39:21;14.57;;;2.20;;
20478;SDS011;10398;52.490;13.434;2023-02-01T07:41:47;17.10;;;2.87;;
20478;SDS011;10398;52.490;13.434;2023-02-01T07:44:13;13.07;;;1.83;;
20478;SDS011;10398;52.490;13.434;2023-02-01T07:46:39;15.27;;;1.83;;
20478;SDS011;10398;52.490;13.434;2023-02-01T07:49:04;15.47;;;2.10;;
20478;SDS011;10398;52.490;13.434;2023-02-01T07:51:30;14.87;;;1.93;;
20478;SDS011;10398;52.490;13.434;2023-02-01T07:53:56;10.80;;;2.40;;
20478;SDS011;10398;52.490;13.434;2023-02-01T07:56:22;11.70;;;1.50;;
20478;SDS011;10398;52.490;13.434;2023-02-01T07:58:54;11.40;;;1.90;;
20478;SDS011;10398;52.490;13.434;2023-02-01T08:01:22;13.67;;;2.10;;
20478;SDS011;10398;52.490;13.434;2023-02-01T08:03:53;9.97;;;1.50;;
20478;SDS011;10398;52.490;13.434;2023-02-01T08:06:24;12.07;;;1.90;;
20478;SDS011;10398;52.490;13.434;2023-02-01T08:08:51;8.33;;;1.40;;
20478;SDS011;10398;52.490;13.434;2023-02-01T08:11:18;11.80;;;1.97;;
20478;SDS011;10398;52.490;13.434;2023-02-01T08:13:44;18.47;;;1.83;;
20478;SDS011;10398;52.490;13.434;2023-02-01T08:16:11;8.57;;;1.90;;
20478;SDS011;10398;52.490;13.434;2023-02-01T08:18:39;14.20;;;2.13;;
20478;SDS011;10398;52.490;13.434;2023-02-01T08:21:05;10.53;;;1.90;;
20478;SDS011;10398;52.490;13.434;2023-02-01T08:23:33;8.40;;;1.60;;
20478;SDS011;10398;52.490;13.434;2023-02-01T08:26:11;4.33;;;1.87;;
20478;SDS011;10398;52.490;13.434;2023-02-01T08:28:40;7.57;;;2.30;;
20478;SDS011;10398;52.490;13.434;2023-02-01T08:31:08;4.23;;;1.83;;
20478;SDS011;10398;52.490;13.434;2023-02-01T08:33:36;4.73;;;2.07;;
20478;SDS011;10398;52.490;13.434;2023-02-01T08:36:06;8.37;;;2.00;;
20478;SDS011;10398;52.490;13.434;2023-02-01T08:38:37;12.27;;;2.47;;
20478;SDS011;10398;52.490;13.434;2023-02-01T08:41:05;9.90;;;2.10;;
20478;SDS011;10398;52.490;13.434;2023-02-01T08:43:32;6.67;;;1.30;;
20478;SDS011;10398;52.490;13.434;2023-02-01T08:45:58;11.27;;;1.80;;
20478;SDS011;10398;52.490;13.434;2023-02-01T08:48:23;20.37;;;2.00;;
20478;SDS011;10398;52.490;13.434;2023-02-01T08:50:49;4.43;;;1.47;;
20478;SDS011;10398;52.490;13.434;2023-02-01T08:53:15;10.80;;;1.73;;
20478;SDS011;10398;52.490;13.434;2023-02-01T08:55:40;7.57;;;1.70;;
20478;SDS011;10398;52.490;13.434;2023-02-01T08:58:06;7.20;;;2.30;;
20478;SDS011;10398;52.490;13.434;2023-02-01T09:00:42;6.23;;;1.77;;
20478;SDS011;10398;52.490;13.434;2023-02-01T09:03:10;3.60;;;1.33;;
20478;SDS011;10398;52.490;13.434;2023-02-01T09:05:37;5.00;;;1.30;;
20478;SDS011;10398;52.490;13.434;2023-02-01T09:08:05;13.60;;;1.90;;
20478;SDS011;10398;52.490;13.434;2023-02-01T09:10:31;4.03;;;1.40;;
20478;SDS011;10398;52.490;13.434;2023-02-01T09:12:57;6.63;;;1.10;;
20478;SDS011;10398;52.490;13.434;2023-02-01T09:15:23;7.13;;;1.50;;
20478;SDS011;10398;52.490;13.434;2023-02-01T09:17:48;2.67;;;1.20;;
20478;SDS011;10398;52.490;13.434;2023-02-01T09:20:14;6.47;;;1.30;;
20478;SDS011;10398;52.490;13.434;2023-02-01T09:22:40;5.23;;;1.20;;
20478;SDS011;10398;52.490;13.434;2023-02-01T09:25:06;5.70;;;1.10;;
20478;SDS011;10398;52.490;13.434;2023-02-01T09:27:33;2.60;;;0.87;;
20478;SDS011;10398;52.490;13.434;2023-02-01T09:29:59;1.43;;;0.40;;
20478;SDS011;10398;52.490;13.434;2023-02-01T09:32:24;3.47;;;1.07;;
20478;SDS011;10398;52.490;13.434;2023-02-01T09:34:51;3.27;;;1.13;;
20478;SDS011;10398;52.490;13.434;2023-02-01T09:37:18;4.53;;;1.00;;
20478;SDS011;10398;52.490;13.434;2023-02-01T09:39:44;3.93;;;1.10;;
20478;SDS011;10398;52.490;13.434;2023-02-01T09:47:49;2.40;;;0.87;;
20478;SDS011;10398;52.490;13.434;2023-02-01T09:50:21;2.40;;;0.90;;
20478;SDS011;10398;52.490;13.434;2023-02-01T09:52:57;3.63;;;0.87;;
20478;SDS011;10398;52.490;13.434;2023-02-01T09:55:45;3.33;;;0.73;;
20478;SDS011;10398;52.490;13.434;2023-02-01T10:00:39;3.80;;;0.53;;
20478;SDS011;10398;52.490;13.434;2023-02-01T10:03:15;2.90;;;0.60;;
20478;SDS011;10398;52.490;13.434;2023-02-01T10:05:45;0.97;;;0.40;;
20478;SDS011;10398;52.490;13.434;2023-02-01T10:10:48;1.93;;;0.70;;
20478;SDS011;10398;52.490;13.434;2023-02-01T10:16:01;2.63;;;0.60;;
20478;SDS011;10398;52.490;13.434;2023-02-01T10:27:08;2.10;;;0.80;;
20478;SDS011;10398;52.490;13.434;2023-02-01T10:29:39;4.93;;;0.90;;
20478;SDS011;10398;52.490;13.434;2023-02-01T10:32:14;4.67;;;0.97;;
20478;SDS011;10398;52.490;13.434;2023-02-01T10:34:51;3.33;;;0.93;;
20478;SDS011;10398;52.490;13.434;2023-02-01T10:37:29;7.60;;;1.10;;
20478;SDS011;10398;52.490;13.434;2023-02-01T10:39:57;5.63;;;1.20;;
20478;SDS011;10398;52.490;13.434;2023-02-01T10:42:52;8.43;;;1.27;;
20478;SDS011;10398;52.490;13.434;2023-02-01T10:45:20;8.43;;;1.27;;
20478;SDS011;10398;52.490;13.434;2023-02-01T10:47:49;2.40;;;1.10;;
20478;SDS011;10398;52.490;13.434;2023-02-01T10:53:04;9.97;;;1.57;;
20478;SDS011;10398;52.490;13.434;2023-02-01T10:58:20;3.37;;;0.90;;
20478;SDS011;10398;52.490;13.434;2023-02-01T11:01:01;4.53;;;0.80;;
20478;SDS011;10398;52.490;13.434;2023-02-01T11:03:41;2.50;;;1.47;;
20478;SDS011;10398;52.490;13.434;2023-02-01T11:06:24;3.50;;;0.83;;
20478;SDS011;10398;52.490;13.434;2023-02-01T11:09:18;2.60;;;0.87;;
20478;SDS011;10398;52.490;13.434;2023-02-01T11:14:15;6.07;;;1.30;;
20478;SDS011;10398;52.490;13.434;2023-02-01T11:16:54;5.83;;;1.07;;
20478;SDS011;10398;52.490;13.434;2023-02-01T11:19:23;6.97;;;1.00;;
20478;SDS011;10398;52.490;13.434;2023-02-01T11:21:50;6.23;;;0.80;;
20478;SDS011;10398;52.490;13.434;2023-02-01T11:26:57;11.53;;;1.37;;
20478;SDS011;10398;52.490;13.434;2023-02-01T11:29:25;4.83;;;1.07;;
20478;SDS011;10398;52.490;13.434;2023-02-01T11:31:57;5.30;;;1.00;;
20478;SDS011;10398;52.490;13.434;2023-02-01T11:34:25;4.57;;;1.17;;
20478;SDS011;10398;52.490;13.434;2023-02-01T11:36:58;9.30;;;1.40;;
20478;SDS011;10398;52.490;13.434;2023-02-01T11:39:27;9.00;;;1.87;;
20478;SDS011;10398;52.490;13.434;2023-02-01T11:41:56;9.00;;;1.53;;
20478;SDS011;10398;52.490;13.434;2023-02-01T11:44:38;8.13;;;2.03;;
20478;SDS011;10398;52.490;13.434;2023-02-01T11:47:30;12.27;;;1.80;;
20478;SDS011;10398;52.490;13.434;2023-02-01T11:50:05;5.97;;;1.37;;
20478;SDS011;10398;52.490;13.434;2023-02-01T11:58:31;9.40;;;1.83;;
20478;SDS011;10398;52.490;13.434;2023-02-01T12:01:25;7.53;;;1.43;;
20478;SDS011;10398;52.490;13.434;2023-02-01T12:06:55;9.33;;;1.53;;
20478;SDS011;10398;52.490;13.434;2023-02-01T12:15:08;9.40;;;1.10;;
20478;SDS011;10398;52.490;13.434;2023-02-01T12:42:24;6.13;;;1.47;;
20478;SDS011;10398;52.490;13.434;2023-02-01T12:47:50;11.07;;;1.60;;
20478;SDS011;10398;52.490;13.434;2023-02-01T12:52:52;7.40;;;1.00;;
20478;SDS011;10398;52.490;13.434;2023-02-01T12:57:50;11.73;;;2.07;;
20478;SDS011;10398;52.490;13.434;2023-02-01T13:03:15;5.57;;;1.40;;
20478;SDS011;10398;52.490;13.434;2023-02-01T13:06:28;7.60;;;1.33;;
20478;SDS011;10398;52.490;13.434;2023-02-01T13:09:04;8.67;;;1.80;;
20478;SDS011;10398;52.490;13.434;2023-02-01T13:11:36;7.43;;;1.23;;
20478;SDS011;10398;52.490;13.434;2023-02-01T13:17:04;1.97;;;0.97;;
20478;SDS011;10398;52.490;13.434;2023-02-01T13:24:57;10.90;;;3.17;;
20478;SDS011;10398;52.490;13.434;2023-02-01T13:27:27;4.77;;;1.30;;
20478;SDS011;10398;52.490;13.434;2023-02-01T13:29:58;5.43;;;1.20;;
20478;SDS011;10398;52.490;13.434;2023-02-01T13:32:37;8.00;;;1.50;;
20478;SDS011;10398;52.490;13.434;2023-02-01T13:35:18;9.10;;;1.57;;
20478;SDS011;10398;52.490;13.434;2023-02-01T13:38:23;5.67;;;1.27;;
20478;SDS011;10398;52.490;13.434;2023-02-01T13:43:33;9.80;;;1.30;;
20478;SDS011;10398;52.490;13.434;2023-02-01T13:46:05;7.77;;;1.40;;
20478;SDS011;10398;52.490;13.434;2023-02-01T13:51:10;6.63;;;1.97;;
20478;SDS011;10398;52.490;13.434;2023-02-01T13:53:38;7.93;;;1.30;;
20478;SDS011;10398;52.490;13.434;2023-02-01T13:56:14;7.37;;;1.60;;
20478;SDS011;10398;52.490;13.434;2023-02-01T13:58:43;9.27;;;2.03;;
20478;SDS011;10398;52.490;13.434;2023-02-01T14:15:26;12.17;;;1.40;;
20478;SDS011;10398;52.490;13.434;2023-02-01T14:17:53;5.37;;;1.20;;
20478;SDS011;10398;52.490;13.434;2023-02-01T14:23:03;7.83;;;1.73;;
20478;SDS011;10398;52.490;13.434;2023-02-01T14:25:36;7.23;;;1.80;;
20478;SDS011;10398;52.490;13.434;2023-02-01T14:28:03;8.97;;;1.60;;
20478;SDS011;10398;52.490;13.434;2023-02-01T14:30:54;11.87;;;1.90;;
20478;SDS011;10398;52.490;13.434;2023-02-01T14:33:23;9.37;;;2.17;;
20478;SDS011;10398;52.490;13.434;2023-02-01T14:36:05;9.90;;;2.30;;
20478;SDS011;10398;52.490;13.434;2023-02-01T14:38:37;8.30;;;1.70;;
20478;SDS011;10398;52.490;13.434;2023-02-01T14:41:11;6.63;;;1.83;;
20478;SDS011;10398;52.490;13.434;2023-02-01T14:47:01;13.20;;;1.63;;
20478;SDS011;10398;52.490;13.434;2023-02-01T14:49:32;15.03;;;1.60;;
20478;SDS011;10398;52.490;13.434;2023-02-01T14:52:19;6.33;;;1.63;;
20478;SDS011;10398;52.490;13.434;2023-02-01T14:54:49;6.80;;;1.53;;
20478;SDS011;10398;52.490;13.434;2023-02-01T14:57:19;10.47;;;1.50;;
20478;SDS011;10398;52.490;13.434;2023-02-01T14:59:49;11.17;;;1.60;;
20478;SDS011;10398;52.490;13.434;2023-02-01T15:02:41;5.30;;;1.17;;
20478;SDS011;10398;52.490;13.434;2023-02-01T15:05:28;8.53;;;1.57;;
20478;SDS011;10398;52.490;13.434;2023-02-01T15:07:57;5.83;;;1.53;;
20478;SDS011;10398;52.490;13.434;2023-02-01T15:10:28;10.90;;;1.80;;
20478;SDS011;10398;52.490;13.434;2023-02-01T15:12:57;4.90;;;1.57;;
20478;SDS011;10398;52.490;13.434;2023-02-01T15:15:23;2.50;;;0.70;;
20478;SDS011;10398;52.490;13.434;2023-02-01T15:17:56;3.67;;;0.90;;
20478;SDS011;10398;52.490;13.434;2023-02-01T15:20:28;3.60;;;1.20;;
20478;SDS011;10398;52.490;13.434;2023-02-01T15:23:05;6.83;;;1.23;;
20478;SDS011;10398;52.490;13.434;2023-02-01T15:25:40;1.17;;;0.73;;
20478;SDS011;10398;52.490;13.434;2023-02-01T15:28:13;3.97;;;0.90;;
20478;SDS011;10398;52.490;13.434;2023-02-01T15:30:40;2.90;;;0.80;;
20478;SDS011;10398;52.490;13.434;2023-02-01T15:33:35;5.77;;;0.77;;
20478;SDS011;10398;52.490;13.434;2023-02-01T15:38:41;5.37;;;1.27;;
20478;SDS011;10398;52.490;13.434;2023-02-01T15:46:21;3.63;;;0.80;;
20478;SDS011;10398;52.490;13.434;2023-02-01T15:48:54;1.57;;;0.57;;
20478;SDS011;10398;52.490;13.434;2023-02-01T15:51:27;2.23;;;0.80;;
20478;SDS011;10398;52.490;13.434;2023-02-01T15:54:14;1.53;;;0.63;;
20478;SDS011;10398;52.490;13.434;2023-02-01T15:56:46;6.10;;;1.17;;
20478;SDS011;10398;52.490;13.434;2023-02-01T15:59:20;1.90;;;0.70;;
20478;SDS011;10398;52.490;13.434;2023-02-01T16:01:49;1.97;;;0.70;;
20478;SDS011;10398;52.490;13.434;2023-02-01T16:04:20;0.67;;;0.50;;
20478;SDS011;10398;52.490;13.434;2023-02-01T16:09:18;0.97;;;0.60;;
20478;SDS011;10398;52.490;13.434;2023-02-01T16:11:57;1.03;;;0.60;;
20478;SDS011;10398;52.490;13.434;2023-02-01T16:14:26;1.33;;;0.60;;
20478;SDS011;10398;52.490;13.434;2023-02-01T16:16:54;1.10;;;0.60;;
20478;SDS011;10398;52.490;13.434;2023-02-01T16:19:22;2.93;;;0.60;;
20478;SDS011;10398;52.490;13.434;2023-02-01T16:21:52;4.03;;;0.53;;
20478;SDS011;10398;52.490;13.434;2023-02-01T16:24:19;1.60;;;0.60;;
20478;SDS011;10398;52.490;13.434;2023-02-01T16:26:47;1.37;;;0.70;;
20478;SDS011;10398;52.490;13.434;2023-02-01T16:29:12;0.67;;;0.47;;
20478;SDS011;10398;52.490;13.434;2023-02-01T16:31:40;0.93;;;0.53;;
20478;SDS011;10398;52.490;13.434;2023-02-01T16:34:06;1.27;;;0.50;;
20478;SDS011;10398;52.490;13.434;2023-02-01T16:36:38;1.23;;;0.47;;
20478;SDS011;10398;52.490;13.434;2023-02-01T16:39:04;1.87;;;0.57;;
20478;SDS011;10398;52.490;13.434;2023-02-01T16:41:32;1.17;;;0.40;;
20478;SDS011;10398;52.490;13.434;2023-02-01T16:43:57;1.10;;;0.40;;
20478;SDS011;10398;52.490;13.434;2023-02-01T16:46:24;1.00;;;0.50;;
20478;SDS011;10398;52.490;13.434;2023-02-01T16:48:53;1.73;;;0.60;;
20478;SDS011;10398;52.490;13.434;2023-02-01T16:51:21;2.60;;;0.60;;
20478;SDS011;10398;52.490;13.434;2023-02-01T16:53:47;1.10;;;0.60;;
20478;SDS011;10398;52.490;13.434;2023-02-01T16:56:21;1.80;;;0.80;;
20478;SDS011;10398;52.490;13.434;2023-02-01T16:58:49;1.70;;;0.50;;
20478;SDS011;10398;52.490;13.434;2023-02-01T17:01:16;1.67;;;0.50;;
20478;SDS011;10398;52.490;13.434;2023-02-01T17:03:43;0.83;;;0.43;;
20478;SDS011;10398;52.490;13.434;2023-02-01T17:06:10;1.10;;;0.70;;
20478;SDS011;10398;52.490;13.434;2023-02-01T17:08:40;1.37;;;0.50;;
20478;SDS011;10398;52.490;13.434;2023-02-01T17:11:09;0.97;;;0.47;;
20478;SDS011;10398;52.490;13.434;2023-02-01T17:13:37;0.87;;;0.50;;
20478;SDS011;10398;52.490;13.434;2023-02-01T17:16:04;1.73;;;0.60;;
20478;SDS011;10398;52.490;13.434;2023-02-01T17:18:34;3.23;;;0.63;;
20478;SDS011;10398;52.490;13.434;2023-02-01T17:21:01;6.93;;;1.60;;
20478;SDS011;10398;52.490;13.434;2023-02-01T17:23:28;4.57;;;1.53;;
20478;SDS011;10398;52.490;13.434;2023-02-01T17:25:55;3.33;;;1.07;;
20478;SDS011;10398;52.490;13.434;2023-02-01T17:28:21;3.37;;;0.90;;
20478;SDS011;10398;52.490;13.434;2023-02-01T17:30:47;4.30;;;1.00;;
20478;SDS011;10398;52.490;13.434;2023-02-01T17:35:53;1.43;;;0.73;;
20478;SDS011;10398;52.490;13.434;2023-02-01T17:38:19;1.97;;;0.90;;
20478;SDS011;10398;52.490;13.434;2023-02-01T17:40:45;5.47;;;1.00;;
20478;SDS011;10398;52.490;13.434;2023-02-01T17:43:15;2.50;;;0.90;;